Time;durP1;ratioP1;P1;durP2;ratioP2;P2;SDS_P1;SDS_P2;PMS_P1;PMS_P2;Temp;Humidity;BMP_temperature;BMP_pressure;BME280_temperature;BME280_humidity;BME280_pressure;Samples;Min_cycle;Max_cycle;Signal;HPM_P1;HPM_P2
2022/05/27 00:02:13;;;;;;;7.92;3.60;;;;;;;15.65;61.31;98926.70;2268645;79;20915;-81
2022/05/27 00:05:12;;;;;;;7.22;3.52;;;;;;;15.64;61.48;98925.40;2268661;79;20950;-82
2022/05/27 00:08:13;;;;;;;11.57;3.72;;;;;;;15.63;61.33;98924.53;2268583;77;20998;-82
2022/05/27 00:11:13;;;;;;;13.43;3.20;;;;;;;15.63;61.48;98924.97;2268820;79;21354;-82
2022/05/27 00:14:14;;;;;;;8.70;2.87;;;;;;;15.62;61.34;98921.47;2269022;79;20902;-83
2022/05/27 00:17:14;;;;;;;5.45;3.10;;;;;;;15.63;61.29;98927.16;2268970;79;20914;-83
2022/05/27 00:20:14;;;;;;;8.78;2.87;;;;;;;15.63;61.22;98921.90;2269156;79;20929;-83
2022/05/27 00:23:15;;;;;;;3.52;2.67;;;;;;;15.61;61.27;98914.45;2269068;79;20911;-83
2022/05/27 00:26:15;;;;;;;7.37;2.92;;;;;;;15.61;61.25;98910.52;2269000;79;20961;-83
2022/05/27 00:29:16;;;;;;;7.85;2.67;;;;;;;15.64;61.16;98906.98;2268804;79;21334;-82
2022/05/27 00:32:16;;;;;;;8.40;2.70;;;;;;;15.64;61.21;98900.41;2268715;79;20994;-81
2022/05/27 00:35:16;;;;;;;6.55;3.15;;;;;;;15.65;61.17;98901.71;2268688;79;20868;-82
2022/05/27 00:38:17;;;;;;;4.40;2.65;;;;;;;15.64;61.11;98892.06;2268739;79;20984;-82
2022/05/27 00:41:17;;;;;;;4.12;2.40;;;;;;;15.62;61.24;98886.39;2268617;79;20946;-81
2022/05/27 00:44:18;;;;;;;9.20;2.72;;;;;;;15.60;61.36;98885.05;2268616;79;21345;-81
2022/05/27 00:47:18;;;;;;;4.65;2.90;;;;;;;15.60;61.49;98883.73;2268710;79;20906;-80
2022/05/27 00:50:18;;;;;;;4.58;3.10;;;;;;;15.58;61.56;98884.19;2268720;79;20879;-82
2022/05/27 00:53:19;;;;;;;7.47;2.95;;;;;;;15.55;61.73;98886.37;2268563;79;20883;-78
2022/05/27 00:56:19;;;;;;;12.98;3.67;;;;;;;15.52;61.96;98884.20;2268508;79;20906;-81
2022/05/27 00:59:19;;;;;;;7.85;3.02;;;;;;;15.51;62.09;98884.64;2268439;79;21279;-81
2022/05/27 01:02:20;;;;;;;6.33;3.10;;;;;;;15.47;62.18;98884.67;2268327;79;20913;-81
2022/05/27 01:05:20;;;;;;;5.12;3.17;;;;;;;15.45;62.29;98887.77;2268073;79;20997;-82
2022/05/27 01:08:21;;;;;;;6.62;3.00;;;;;;;15.43;62.35;98882.95;2268195;77;20986;-81
2022/05/27 01:11:21;;;;;;;5.00;2.50;;;;;;;15.41;62.47;98883.41;2268220;79;20914;-81
2022/05/27 01:14:21;;;;;;;7.15;3.10;;;;;;;15.40;62.47;98879.91;2268301;79;20919;-81
2022/05/27 01:17:22;;;;;;;5.47;2.83;;;;;;;15.39;62.53;98873.34;2268306;79;20970;-81
2022/05/27 01:20:22;;;;;;;11.85;3.35;;;;;;;15.39;62.53;98874.66;2268588;79;20949;-81
2022/05/27 01:23:23;;;;;;;4.25;2.98;;;;;;;15.37;62.61;98879.05;2268528;79;21350;-83
2022/05/27 01:26:23;;;;;;;5.70;2.90;;;;;;;15.37;62.64;98872.47;2268493;79;20986;-81
2022/05/27 01:29:23;;;;;;;6.28;2.77;;;;;;;15.35;62.71;98871.61;2268134;79;20915;-80
2022/05/27 01:32:24;;;;;;;4.72;2.77;;;;;;;15.33;62.81;98872.94;2268304;79;20910;-80
2022/05/27 01:35:24;;;;;;;5.28;2.67;;;;;;;15.34;62.95;98868.55;2268218;79;20974;-81
2022/05/27 01:38:25;;;;;;;5.28;2.80;;;;;;;15.34;63.16;98867.23;2268335;79;20978;-80
2022/05/27 01:41:25;;;;;;;3.85;3.08;;;;;;;15.30;63.10;98850.61;2268259;79;20918;-82
2022/05/27 01:44:25;;;;;;;14.85;3.50;;;;;;;15.28;63.17;98857.19;2268385;79;21008;-82
2022/05/27 01:47:26;;;;;;;4.40;2.58;;;;;;;15.27;63.27;98854.12;2268151;79;20954;-82
2022/05/27 01:50:26;;;;;;;4.72;2.75;;;;;;;15.28;63.22;98848.43;2268444;79;20969;-82
2022/05/27 01:53:27;;;;;;;5.37;3.20;;;;;;;15.28;63.18;98853.25;2268778;79;20953;-82
2022/05/27 01:56:27;;;;;;;5.72;3.22;;;;;;;15.28;63.22;98842.73;2269099;79;20906;-82
2022/05/27 01:59:27;;;;;;;5.95;2.60;;;;;;;15.28;63.25;98845.36;2269753;79;20946;-83
2022/05/27 02:02:28;;;;;;;6.62;3.05;;;;;;;15.26;63.29;98847.56;2269210;79;20915;-81
2022/05/27 02:05:28;;;;;;;5.20;2.50;;;;;;;15.26;63.52;98837.05;2269169;79;20970;-82
2022/05/27 02:08:29;;;;;;;4.97;2.72;;;;;;;15.25;63.57;98834.86;2268755;77;21475;-81
2022/05/27 02:11:30;;;;;;;4.55;2.75;;;;;;;15.22;63.69;98828.31;2268910;79;20880;-82
2022/05/27 02:14:29;;;;;;;4.87;2.72;;;;;;;15.22;63.57;98824.36;2268885;79;20918;-82
2022/05/27 02:17:30;;;;;;;4.25;3.10;;;;;;;15.22;63.61;98822.17;2268822;79;20926;-82
2022/05/27 02:20:30;;;;;;;2.90;2.60;;;;;;;15.22;63.70;98821.73;2268628;79;20918;-82
2022/05/27 02:23:31;;;;;;;4.15;2.62;;;;;;;15.22;63.67;98815.16;2269091;78;20974;-81
2022/05/27 02:26:32;;;;;;;8.83;2.62;;;;;;;15.22;63.71;98815.16;2268480;79;20942;-81
2022/05/27 02:29:31;;;;;;;5.42;2.83;;;;;;;15.20;63.82;98810.36;2268756;79;20957;-83
2022/05/27 02:32:32;;;;;;;4.12;2.52;;;;;;;15.20;64.00;98805.09;2269099;79;21279;-83
2022/05/27 02:35:32;;;;;;;3.92;2.80;;;;;;;15.20;64.01;98806.41;2268833;79;20954;-81
2022/05/27 02:38:33;;;;;;;3.83;2.50;;;;;;;15.18;64.14;98800.73;2268461;79;20915;-81
2022/05/27 02:41:33;;;;;;;5.03;2.50;;;;;;;15.17;64.01;98798.55;2268774;79;20957;-83
2022/05/27 02:44:33;;;;;;;4.22;2.37;;;;;;;15.17;64.25;98790.66;2268736;79;20954;-81
2022/05/27 02:47:36;;;;;;;3.95;2.58;;;;;;;15.18;64.25;98794.16;2268548;79;20958;-81
2022/05/27 02:50:36;;;;;;;6.53;2.25;;;;;;;15.18;64.21;98795.03;2268634;79;20978;-81
2022/05/27 02:53:37;;;;;;;3.60;2.65;;;;;;;15.20;64.36;98794.58;2268629;79;21021;-82
2022/05/27 02:56:40;;;;;;;4.12;2.27;;;;;;;15.21;64.40;98796.77;2268707;79;20887;-82
2022/05/27 02:59:40;;;;;;;7.47;2.70;;;;;;;15.21;64.45;98798.95;2268838;79;20974;-81
2022/05/27 03:02:41;;;;;;;6.08;2.45;;;;;;;15.23;64.54;98797.63;2268718;79;20953;-81
2022/05/27 03:05:41;;;;;;;5.85;2.83;;;;;;;15.24;64.52;98796.30;2268561;79;20958;-81
2022/05/27 03:08:41;;;;;;;3.52;2.30;;;;;;;15.26;64.54;98797.16;2268502;77;21077;-81
2022/05/27 03:11:42;;;;;;;3.52;2.62;;;;;;;15.28;64.51;98794.52;2268557;79;20958;-80
2022/05/27 03:14:42;;;;;;;13.10;2.50;;;;;;;15.32;64.66;98792.30;2268993;79;20891;-78
2022/05/27 03:17:43;;;;;;;9.53;2.40;;;;;;;15.34;64.65;98784.39;2268284;79;21346;-83
2022/05/27 03:20:43;;;;;;;4.28;2.50;;;;;;;15.38;64.59;98781.73;2266578;79;20950;-80
2022/05/27 03:23:43;;;;;;;4.90;2.40;;;;;;;15.43;64.47;98781.69;2268684;79;20934;-84
2022/05/27 03:26:44;;;;;;;4.92;3.20;;;;;;;15.49;64.35;98767.16;2267874;79;21009;-82
2022/05/27 03:29:44;;;;;;;6.17;3.05;;;;;;;15.57;64.22;98766.65;2266770;79;21066;-83
2022/05/27 03:32:45;;;;;;;8.95;3.22;;;;;;;15.64;64.08;98755.25;2266737;79;20950;-85
2022/05/27 03:35:45;;;;;;;3.67;2.60;;;;;;;15.69;64.07;98760.02;2266945;79;21358;-81
2022/05/27 03:38:45;;;;;;;7.37;3.05;;;;;;;15.75;63.90;98750.75;2265228;79;20997;-76
2022/05/27 03:41:46;;;;;;;6.12;3.08;;;;;;;15.80;63.74;98750.70;2265542;79;20949;-84
2022/05/27 03:44:46;;;;;;;8.45;2.98;;;;;;;15.86;63.65;98758.53;2266746;79;21012;-80
2022/05/27 03:47:47;;;;;;;7.53;2.85;;;;;;;15.88;63.64;98755.44;2266662;79;20985;-83
2022/05/27 03:50:47;;;;;;;4.47;3.25;;;;;;;15.97;63.56;98752.70;2266812;79;20986;-81
2022/05/27 03:54:06;;;;;;;5.33;2.80;;;;;;;16.06;63.33;98751.28;2265826;79;20978;-81
2022/05/27 03:57:06;;;;;;;9.33;3.25;;;;;;;16.10;63.28;98748.16;2265784;79;21283;-82
2022/05/27 04:00:07;;;;;;;48.15;5.85;;;;;;;16.58;64.58;98749.33;2266064;79;21325;-82
2022/05/27 04:03:07;;;;;;;28.32;5.17;;;;;;;17.42;63.05;98738.86;2265580;79;20950;-83
2022/05/27 04:06:07;;;;;;;9.78;2.95;;;;;;;17.90;60.48;98741.53;2264705;79;20982;-81
2022/05/27 04:09:08;;;;;;;5.15;3.30;;;;;;;17.59;59.84;98742.52;2264499;77;21073;-81
2022/05/27 04:12:08;;;;;;;9.03;3.02;;;;;;;17.24;60.04;98743.09;2264728;79;20950;-82
2022/05/27 04:15:08;;;;;;;3.87;3.00;;;;;;;16.99;60.38;98741.30;2265479;79;21623;-84
2022/05/27 04:18:09;;;;;;;4.75;2.80;;;;;;;16.78;60.71;98734.59;2265181;79;21013;-81
2022/05/27 04:21:09;;;;;;;5.58;3.08;;;;;;;16.60;61.14;98733.50;2265136;79;21030;-80
2022/05/27 04:24:10;;;;;;;6.83;3.60;;;;;;;16.44;61.64;98729.73;2266737;79;20942;-82
2022/05/27 04:27:10;;;;;;;5.40;3.00;;;;;;;16.32;61.90;98735.16;2266156;79;21068;-84
2022/05/27 04:30:11;;;;;;;5.90;3.20;;;;;;;16.23;62.18;98731.33;2265942;79;21017;-83
2022/05/27 04:33:11;;;;;;;9.58;3.42;;;;;;;16.15;62.43;98730.10;2264382;79;20990;-83
2022/05/27 04:36:12;;;;;;;6.90;3.27;;;;;;;16.06;62.81;98730.22;2265288;79;20977;-82
2022/05/27 04:39:12;;;;;;;7.35;2.83;;;;;;;16.02;62.92;98732.46;2265241;79;21065;-81
2022/05/27 04:42:12;;;;;;;17.17;3.62;;;;;;;16.00;62.96;98727.66;2267562;79;20989;-81
2022/05/27 04:45:12;;;;;;;8.40;3.50;;;;;;;16.01;63.00;98724.58;2267058;79;21030;-80
2022/05/27 04:48:13;;;;;;;8.93;2.83;;;;;;;16.03;63.09;98717.53;2267423;79;20946;-79
2022/05/27 04:51:16;;;;;;;7.57;2.90;;;;;;;16.06;62.87;98718.37;2266158;79;21020;-81
2022/05/27 04:54:16;;;;;;;5.12;3.30;;;;;;;16.08;62.78;98718.35;2265802;79;21860;-82
2022/05/27 04:57:17;;;;;;;10.05;3.17;;;;;;;16.08;62.63;98710.45;2264804;79;21013;-79
2022/05/27 05:00:17;;;;;;;5.33;3.75;;;;;;;16.09;62.65;98706.48;2265441;79;21053;-78
2022/05/27 05:03:18;;;;;;;9.88;3.33;;;;;;;16.09;62.59;98710.88;2265970;79;21005;-83
2022/05/27 05:06:18;;;;;;;8.88;3.37;;;;;;;16.11;62.54;98707.34;2264944;79;20950;-83
2022/05/27 05:09:18;;;;;;;7.62;3.15;;;;;;;16.13;62.32;98700.73;2264804;77;21098;-83
2022/05/27 05:12:22;;;;;;;5.47;2.87;;;;;;;16.19;62.20;98696.70;2264945;79;21476;-82
2022/05/27 05:15:19;;;;;;;9.50;2.67;;;;;;;16.21;62.14;98692.28;2264916;79;21033;-83
2022/05/27 05:18:20;;;;;;;5.65;2.45;;;;;;;16.26;62.06;98702.31;2265828;79;20997;-83
2022/05/27 05:21:20;;;;;;;16.52;3.67;;;;;;;16.36;61.92;98695.16;2265259;79;21361;-85
2022/05/27 05:24:20;;;;;;;18.10;4.45;;;;;;;16.48;61.57;98685.36;2265289;79;20993;-84
2022/05/27 05:27:21;;;;;;;7.92;2.92;;;;;;;16.58;61.21;98697.08;2266113;79;21303;-84
2022/05/27 05:30:21;;;;;;;5.83;2.70;;;;;;;16.61;61.16;98697.03;2265380;79;21002;-83
2022/05/27 05:33:22;;;;;;;5.00;2.42;;;;;;;16.63;60.74;98685.58;2265670;79;20950;-82
2022/05/27 05:36:22;;;;;;;9.03;3.08;;;;;;;16.65;60.67;98690.41;2266191;79;20954;-83
2022/05/27 05:39:22;;;;;;;8.35;2.65;;;;;;;16.72;60.51;98693.38;2265791;79;21009;-83
2022/05/27 05:42:23;;;;;;;5.70;3.30;;;;;;;16.79;60.40;98688.88;2266038;79;21381;-82
2022/05/27 05:45:23;;;;;;;5.30;2.67;;;;;;;16.85;60.15;98682.20;2265598;79;20985;-83
2022/05/27 05:48:24;;;;;;;10.23;3.42;;;;;;;16.94;60.08;98680.73;2265212;79;21130;-82
2022/05/27 05:51:24;;;;;;;3.52;2.30;;;;;;;17.04;59.97;98684.95;2265964;79;21362;-85
2022/05/27 05:54:24;;;;;;;5.37;2.60;;;;;;;17.11;59.66;98678.68;2266624;79;20949;-85
2022/05/27 05:57:25;;;;;;;3.52;2.22;;;;;;;17.14;59.72;98679.08;2265662;79;20977;-84
2022/05/27 06:00:25;;;;;;;5.05;2.90;;;;;;;17.20;59.46;98673.70;2266343;79;21005;-83
2022/05/27 06:03:29;;;;;;;6.15;1.70;;;;;;;17.20;59.27;98673.25;2265852;79;20978;-84
2022/05/27 06:06:29;;;;;;;3.35;2.10;;;;;;;17.26;58.98;98663.03;2266877;79;20993;-83
2022/05/27 06:09:29;;;;;;;12.33;2.55;;;;;;;17.30;58.76;98661.22;2272444;77;21369;-83
2022/05/27 06:12:30;;;;;;;4.08;2.00;;;;;;;17.39;58.93;98663.72;2316556;77;20937;-82
2022/05/27 06:15:30;;;;;;;6.90;2.35;;;;;;;17.54;58.03;98660.79;2316001;77;20964;-84
2022/05/27 06:18:31;;;;;;;6.10;2.45;;;;;;;17.60;58.06;98661.99;2315173;77;20971;-83
2022/05/27 06:21:34;;;;;;;6.80;2.30;;;;;;;17.71;57.54;98660.50;2315232;77;21795;-84
2022/05/27 06:24:35;;;;;;;4.40;2.20;;;;;;;17.82;57.06;98662.02;2315053;77;20965;-82
2022/05/27 06:27:35;;;;;;;5.28;2.47;;;;;;;17.94;57.25;98654.30;2315624;77;20960;-82
2022/05/27 06:37:15;;;;;;;9.65;2.20;;;;;;;18.18;56.18;98644.98;2313577;77;20999;-81
2022/05/27 06:40:16;;;;;;;4.10;2.05;;;;;;;18.28;56.32;98645.23;2313516;77;21047;-82
2022/05/27 06:43:15;;;;;;;5.33;2.20;;;;;;;18.55;56.75;98637.13;2313670;77;21052;-84
2022/05/27 06:46:16;;;;;;;4.20;2.25;;;;;;;18.79;55.80;98638.34;2313380;77;21015;-80
2022/05/27 06:49:17;;;;;;;5.53;2.10;;;;;;;19.00;55.90;98631.20;2313814;77;21474;-84
2022/05/27 06:52:17;;;;;;;3.80;2.17;;;;;;;19.09;55.04;98624.38;2313479;77;21011;-84
2022/05/27 06:55:17;;;;;;;2.90;2.00;;;;;;;19.06;54.44;98624.88;2313330;77;20973;-83
2022/05/27 06:58:18;;;;;;;5.45;2.27;;;;;;;18.97;54.96;98622.02;2314178;77;21016;-83
2022/05/27 07:01:18;;;;;;;7.78;3.37;;;;;;;18.86;54.51;98626.70;2314810;77;20991;-82
2022/05/27 07:04:18;;;;;;;4.25;3.55;;;;;;;18.73;55.20;98627.47;2315117;77;21038;-83
2022/05/27 07:07:19;;;;;;;2.50;2.00;;;;;;;18.71;55.36;98621.80;2314517;77;21046;-82
2022/05/27 07:10:19;;;;;;;4.20;2.20;;;;;;;18.69;55.39;98623.61;2314926;77;21470;-82
2022/05/27 07:13:20;;;;;;;4.37;2.20;;;;;;;18.67;55.46;98619.68;2318746;77;20963;-83
2022/05/27 07:16:20;;;;;;;4.05;2.58;;;;;;;18.61;55.24;98622.89;2319249;77;20940;-83
2022/05/27 07:19:20;;;;;;;3.65;2.12;;;;;;;18.58;55.55;98615.91;2320733;77;20987;-83
2022/05/27 07:22:21;;;;;;;7.12;2.47;;;;;;;18.55;55.35;98602.77;2320040;77;20937;-82
2022/05/27 07:25:21;;;;;;;4.42;2.75;;;;;;;18.51;55.76;98605.52;2319738;77;21048;-81
2022/05/27 07:28:22;;;;;;;5.62;2.42;;;;;;;18.60;55.74;98605.30;2319565;77;20940;-82
2022/05/27 07:31:22;;;;;;;4.47;2.30;;;;;;;18.77;55.36;98597.40;2318310;77;21001;-84
2022/05/27 07:34:23;;;;;;;4.50;2.20;;;;;;;18.95;55.10;98595.19;2317359;77;21412;-81
2022/05/27 07:37:23;;;;;;;21.40;2.90;;;;;;;19.20;54.89;98595.45;2317863;77;20949;-83
2022/05/27 07:40:25;;;;;;;6.95;2.20;;;;;;;19.40;54.60;98595.32;2317552;77;21071;-83
2022/05/27 07:43:26;;;;;;;7.30;2.13;;;;;;;19.63;53.92;98583.25;2286620;77;20948;-82
2022/05/27 07:46:26;;;;;;;6.75;2.25;;;;;;;19.91;52.34;98574.04;2317990;77;21360;-80
2022/05/27 07:49:26;;;;;;;7.70;2.60;;;;;;;20.27;52.91;98578.70;2318398;77;21380;-82
2022/05/27 07:52:32;;;;;;;2.72;1.90;;;;;;;20.62;51.84;98572.30;2318589;77;21043;-81
2022/05/27 07:55:29;;;;;;;6.37;3.77;;;;;;;20.96;50.83;98570.27;2288627;77;20921;-82
2022/05/27 07:58:30;;;;;;;5.80;2.25;;;;;;;21.26;49.97;98560.86;2318942;77;20948;-84
2022/05/27 08:01:31;;;;;;;7.15;2.02;;;;;;;21.53;49.83;98562.52;2317738;77;21006;-83
2022/05/27 08:04:40;;;;;;;5.53;2.15;;;;;;;21.83;48.73;98549.05;2318369;77;20956;-82
2022/05/27 08:07:43;;;;;;;6.80;2.67;;;;;;;22.16;48.64;98552.22;2317504;77;22043;-82
2022/05/27 08:10:43;;;;;;;5.42;2.15;;;;;;;22.27;48.53;98543.35;2318317;77;21075;-82
2022/05/27 08:13:43;;;;;;;148.55;10.15;;;;;;;22.52;48.03;98535.23;2319119;77;20996;-82
2022/05/27 08:16:44;;;;;;;4.37;2.20;;;;;;;22.60;45.74;98538.48;2319060;77;20948;-82
2022/05/27 08:19:44;;;;;;;6.37;1.98;;;;;;;22.67;46.23;98535.97;2318553;77;20988;-83
2022/05/27 08:22:45;;;;;;;6.53;2.33;;;;;;;22.71;45.35;98537.56;2318112;77;21020;-80
2022/05/27 08:25:45;;;;;;;10.53;2.33;;;;;;;22.73;46.07;98533.51;2318092;77;20992;-83
2022/05/27 08:28:45;;;;;;;7.58;2.30;;;;;;;22.58;44.87;98524.38;2317838;77;21608;-81
2022/05/27 08:31:46;;;;;;;6.42;2.15;;;;;;;22.56;45.36;98516.92;2318265;77;20991;-84
2022/05/27 08:38:07;;;;;;;5.90;2.30;;;;;;;21.77;46.19;98512.09;2317509;77;21040;-84
2022/05/27 08:41:06;;;;;;;3.50;2.17;;;;;;;21.65;47.04;98510.73;2317687;77;20996;-83
2022/05/27 08:44:06;;;;;;;4.15;2.50;;;;;;;21.51;47.49;98503.29;2318224;77;20984;-84
2022/05/27 08:47:07;;;;;;;10.58;2.67;;;;;;;21.41;47.57;98503.69;2318856;77;21024;-82
2022/05/27 08:50:07;;;;;;;11.35;2.47;;;;;;;21.57;47.51;98496.41;2318812;77;20941;-83
2022/05/27 08:53:07;;;;;;;8.05;2.00;;;;;;;21.67;47.08;98491.62;2319082;77;21024;-82
2022/05/27 08:59:32;;;;;;;5.05;2.27;;;;;;;21.17;47.63;98496.13;2320053;77;21315;-81
2022/05/27 09:02:29;;;;;;;11.12;2.75;;;;;;;20.78;48.22;98489.97;2319365;77;20994;-83
2022/05/27 09:05:30;;;;;;;6.10;2.33;;;;;;;20.48;48.92;98489.69;2318742;77;21000;-82
2022/05/27 09:08:31;;;;;;;5.83;2.10;;;;;;;20.14;49.75;98493.42;2319880;77;20984;-81
2022/05/27 09:11:31;;;;;;;9.48;2.42;;;;;;;19.89;50.45;98493.75;2317219;77;21059;-82
2022/05/27 09:14:33;;;;;;;7.90;2.75;;;;;;;19.63;50.79;98491.45;2314014;77;21360;-83
2022/05/27 09:17:32;;;;;;;8.40;2.05;;;;;;;19.34;51.68;98488.77;2314335;77;20972;-83
2022/05/27 09:20:33;;;;;;;3.77;1.92;;;;;;;19.18;52.37;98494.95;2314877;77;21000;-82
2022/05/27 09:23:33;;;;;;;6.87;2.85;;;;;;;19.07;52.83;98490.38;2314455;77;20960;-83
2022/05/27 09:26:34;;;;;;;8.43;2.55;;;;;;;18.99;53.05;98479.15;2314345;77;21058;-82
2022/05/27 09:29:34;;;;;;;5.33;3.75;;;;;;;18.98;53.29;98479.60;2314862;77;21007;-81
2022/05/27 09:32:34;;;;;;;5.90;3.42;;;;;;;18.96;53.56;98474.81;2314565;77;20941;-80
2022/05/27 09:35:35;;;;;;;4.75;2.90;;;;;;;18.96;53.79;98475.27;2314457;77;21459;-82
2022/05/27 09:38:35;;;;;;;35.80;4.85;;;;;;;18.91;54.20;98474.07;2315417;77;21014;-85
2022/05/27 09:41:35;;;;;;;11.95;3.15;;;;;;;18.90;54.49;98471.02;2315102;77;21514;-85
2022/05/27 09:44:36;;;;;;;10.32;3.05;;;;;;;18.85;54.91;98472.92;2314834;77;20901;-84
2022/05/27 09:47:36;;;;;;;25.20;4.03;;;;;;;18.76;55.58;98478.00;2314761;77;20944;-79
2022/05/27 09:50:37;;;;;;;11.35;3.70;;;;;;;18.66;56.46;98481.80;2314506;77;20998;-83
2022/05/27 09:53:38;;;;;;;5.78;3.15;;;;;;;18.48;58.09;98485.34;2313571;77;21012;-82
2022/05/27 09:56:38;;;;;;;8.50;3.00;;;;;;;18.24;58.50;98494.75;2313507;77;20980;-78
2022/05/27 09:59:38;;;;;;;7.50;3.00;;;;;;;18.10;60.29;98485.35;2310985;77;21394;-82
2022/05/27 10:02:39;;;;;;;4.92;2.92;;;;;;;17.90;60.96;98488.91;2313974;77;20964;-80
2022/05/27 10:05:39;;;;;;;5.45;3.75;;;;;;;17.76;62.96;98491.00;2312870;77;21059;-80
2022/05/27 10:08:40;;;;;;;6.58;3.83;;;;;;;17.65;62.96;98485.94;2313287;77;21466;-80
2022/05/27 10:11:40;;;;;;;8.83;4.12;;;;;;;17.54;62.83;98479.16;2316207;77;21839;-80
2022/05/27 10:14:40;;;;;;;8.05;4.55;;;;;;;17.47;63.86;98491.61;2319322;77;20971;-80
2022/05/27 10:17:42;;;;;;;8.88;3.83;;;;;;;17.34;64.85;98496.28;2318363;77;20987;-81
2022/05/27 10:20:41;;;;;;;7.35;3.20;;;;;;;17.19;64.73;98505.80;2318000;77;21420;-81
2022/05/27 10:23:42;;;;;;;4.05;2.90;;;;;;;17.09;66.16;98504.23;2317714;77;20979;-80
2022/05/27 10:26:42;;;;;;;10.55;5.00;;;;;;;17.08;66.37;98511.28;2318010;77;21034;-81
2022/05/27 10:29:42;;;;;;;5.70;3.00;;;;;;;16.99;67.29;98504.86;2318121;77;20988;-82
2022/05/27 10:32:43;;;;;;;5.97;2.12;;;;;;;16.70;70.99;98529.13;2318088;77;21004;-80
2022/05/27 10:35:43;;;;;;;3.22;1.50;;;;;;;16.18;72.63;98559.34;2317502;77;20956;-80
2022/05/27 10:38:43;;;;;;;2.75;1.70;;;;;;;15.35;70.79;98580.56;2318248;77;21005;-83
2022/05/27 10:41:44;;;;;;;2.92;2.00;;;;;;;14.26;71.64;98606.02;2318295;77;21018;-81
2022/05/27 10:44:45;;;;;;;3.67;2.40;;;;;;;13.63;73.85;98623.81;2318683;77;21383;-81
2022/05/27 10:47:45;;;;;;;2.83;2.50;;;;;;;13.39;76.47;98599.43;2318032;77;20992;-81
2022/05/27 10:50:45;;;;;;;4.55;2.50;;;;;;;13.15;77.79;98621.75;2317994;77;20983;-80
2022/05/27 10:53:45;;;;;;;5.00;3.12;;;;;;;12.98;78.53;98632.66;2318536;77;20948;-80
2022/05/27 11:02:04;;;;;;;3.67;2.70;;;;;;;12.94;77.86;98615.20;2318154;77;21248;-80
2022/05/27 11:03:05;;;;;;;5.62;3.02;;;;;;;12.90;78.95;98618.69;2317869;77;20957;-83
2022/05/27 11:06:06;;;;;;;4.17;2.40;;;;;;;12.82;79.31;98623.94;2317579;77;21035;-82
2022/05/27 11:09:06;;;;;;;9.08;2.80;;;;;;;12.66;80.49;98624.82;2317670;77;20971;-80
2022/05/27 11:12:07;;;;;;;5.70;3.10;;;;;;;12.48;81.24;98630.05;2315478;77;21052;-82
2022/05/27 11:15:10;;;;;;;2.85;2.62;;;;;;;12.51;81.59;98615.66;2314285;77;20956;-82
2022/05/27 11:18:10;;;;;;;6.53;2.30;;;;;;;12.53;82.18;98604.31;2314168;77;20948;-79
2022/05/27 11:21:11;;;;;;;3.10;2.80;;;;;;;12.41;81.99;98598.63;2314017;77;20980;-82
2022/05/27 11:24:11;;;;;;;4.30;2.72;;;;;;;12.37;83.20;98597.32;2315159;77;21009;-80
2022/05/27 11:27:12;;;;;;;6.72;3.00;;;;;;;12.42;82.12;98592.96;2314285;77;21035;-82
2022/05/27 11:30:12;;;;;;;6.25;2.47;;;;;;;12.51;81.86;98610.41;2313699;77;20985;-81
2022/05/27 11:33:12;;;;;;;4.17;2.70;;;;;;;12.44;82.14;98601.69;2313237;77;21439;-83
2022/05/27 11:36:13;;;;;;;4.03;2.77;;;;;;;12.51;82.14;98599.51;2313825;77;20948;-80
2022/05/27 11:39:13;;;;;;;5.85;2.65;;;;;;;12.51;81.53;98609.11;2313912;77;21051;-80
2022/05/27 11:42:14;;;;;;;4.05;2.87;;;;;;;12.57;81.77;98596.89;2314757;77;21344;-80
2022/05/27 11:45:15;;;;;;;5.53;2.65;;;;;;;12.54;82.05;98606.05;2313799;77;20983;-77
2022/05/27 11:48:14;;;;;;;2.92;2.60;;;;;;;12.49;82.41;98614.34;2313906;77;21035;-82
2022/05/27 11:51:15;;;;;;;4.25;2.60;;;;;;;12.43;81.74;98613.03;2313164;77;20917;-81
2022/05/27 11:54:15;;;;;;;3.58;2.72;;;;;;;12.51;81.45;98598.20;2313303;77;21043;-80
2022/05/27 11:57:16;;;;;;;5.53;3.05;;;;;;;12.57;81.81;98604.74;2313284;77;20952;-80
2022/05/27 12:00:19;;;;;;;5.65;3.00;;;;;;;12.53;82.53;98600.81;2313638;77;20960;-82
2022/05/27 12:03:19;;;;;;;7.17;2.50;;;;;;;12.41;81.54;98610.84;2314351;77;21251;-81
2022/05/27 12:06:20;;;;;;;7.12;3.70;;;;;;;12.36;81.94;98613.89;2313949;77;21015;-83
2022/05/27 12:09:20;;;;;;;5.53;3.10;;;;;;;12.42;82.16;98613.47;2313581;77;21019;-81
2022/05/27 12:12:21;;;;;;;3.72;3.20;;;;;;;12.43;81.84;98608.67;2315593;77;21004;-82
2022/05/27 12:15:21;;;;;;;4.25;3.20;;;;;;;12.43;81.98;98602.56;2317859;77;21656;-82
2022/05/27 12:18:21;;;;;;;3.40;3.08;;;;;;;12.52;81.64;98600.38;2317090;77;20964;-84
2022/05/27 12:21:22;;;;;;;3.98;2.80;;;;;;;12.59;81.35;98600.38;2316496;77;21008;-82
2022/05/27 12:24:22;;;;;;;4.12;3.00;;;;;;;12.57;80.90;98598.20;2316458;77;20964;-83
2022/05/27 12:27:23;;;;;;;3.10;2.72;;;;;;;12.52;80.63;98605.62;2316389;77;21048;-83
2022/05/27 12:30:23;;;;;;;3.20;2.90;;;;;;;12.40;81.04;98609.97;2316370;77;20941;-82
2022/05/27 12:33:23;;;;;;;2.98;2.70;;;;;;;12.35;81.39;98616.08;2316938;77;20976;-83
2022/05/27 12:36:24;;;;;;;3.37;3.00;;;;;;;12.31;81.83;98625.67;2317137;77;20937;-83
2022/05/27 12:39:24;;;;;;;5.33;3.50;;;;;;;12.28;81.70;98643.98;2316575;77;21289;-83
2022/05/27 12:42:25;;;;;;;3.67;3.35;;;;;;;12.27;82.89;98634.39;2316761;77;21031;-81
2022/05/27 12:45:25;;;;;;;7.08;4.40;;;;;;;12.20;83.90;98631.32;2317749;77;21032;-81
2022/05/27 12:48:25;;;;;;;5.47;3.92;;;;;;;12.17;84.16;98636.98;2318343;77;20975;-81
2022/05/27 12:51:26;;;;;;;6.80;4.10;;;;;;;12.15;84.40;98640.91;2317647;77;20984;-82
2022/05/27 12:54:26;;;;;;;6.05;3.62;;;;;;;12.04;84.65;98647.82;2317960;77;20981;-80
2022/05/27 13:01:00;;;;;;;6.65;3.70;;;;;;;12.06;84.53;98638.23;2317439;77;20925;-80
2022/05/27 13:04:01;;;;;;;5.33;3.40;;;;;;;12.12;84.71;98633.89;2286561;77;20995;-81
2022/05/27 13:07:00;;;;;;;7.15;3.55;;;;;;;12.18;84.81;98641.34;2317106;77;20976;-80
2022/05/27 13:10:01;;;;;;;6.58;3.47;;;;;;;12.16;83.95;98635.23;2317142;77;20984;-80
2022/05/27 13:13:01;;;;;;;3.87;3.12;;;;;;;12.17;84.73;98640.91;2317185;77;21659;-82
2022/05/27 13:16:01;;;;;;;5.28;3.47;;;;;;;12.17;84.18;98642.22;2317239;77;21024;-81
2022/05/27 13:19:02;;;;;;;6.25;3.15;;;;;;;12.15;84.72;98641.34;2318322;77;20936;-81
2022/05/27 13:22:03;;;;;;;7.10;3.47;;;;;;;12.11;84.76;98645.23;2318056;77;21400;-81
2022/05/27 13:25:03;;;;;;;4.83;4.12;;;;;;;12.10;84.64;98651.33;2316685;77;21055;-79
2022/05/27 13:28:03;;;;;;;5.42;4.83;;;;;;;12.16;85.12;98637.42;2317738;77;20980;-81
2022/05/27 13:31:04;;;;;;;9.58;4.40;;;;;;;12.25;85.88;98594.69;2318066;77;20914;-81
2022/05/27 13:34:04;;;;;;;5.15;3.52;;;;;;;12.35;84.89;98588.59;2317620;77;21430;-81
2022/05/27 13:37:04;;;;;;;3.35;3.05;;;;;;;12.41;84.54;98572.89;2318120;77;21008;-82
2022/05/27 13:40:05;;;;;;;3.27;2.98;;;;;;;12.50;83.90;98568.97;2318962;77;20987;-83
2022/05/27 13:43:05;;;;;;;4.05;3.50;;;;;;;12.64;83.90;98560.66;2319237;77;21482;-84
2022/05/27 13:46:06;;;;;;;3.52;2.85;;;;;;;12.72;83.45;98566.77;2319099;77;21391;-81
2022/05/27 13:49:06;;;;;;;4.80;2.58;;;;;;;12.82;83.58;98559.77;2318927;77;20948;-81
2022/05/27 13:52:06;;;;;;;4.12;2.80;;;;;;;12.89;83.35;98562.81;2318752;77;20933;-81
2022/05/27 13:55:07;;;;;;;2.50;2.30;;;;;;;12.96;83.38;98563.67;2317918;77;21443;-83
2022/05/27 13:58:07;;;;;;;4.37;2.67;;;;;;;13.01;83.18;98560.63;2318584;77;21383;-82
2022/05/27 14:01:08;;;;;;;4.45;2.55;;;;;;;13.02;82.90;98561.07;2318772;77;21079;-81
2022/05/27 14:04:08;;;;;;;3.40;2.65;;;;;;;13.04;82.85;98556.70;2319009;77;20972;-83
2022/05/27 14:07:08;;;;;;;3.72;2.58;;;;;;;13.05;83.40;98530.93;2319067;77;21087;-82
2022/05/27 14:10:09;;;;;;;4.28;3.22;;;;;;;13.11;83.16;98536.15;2319532;77;20959;-83
2022/05/27 14:13:09;;;;;;;2.47;2.37;;;;;;;13.23;82.78;98549.69;2318043;77;22173;-83
2022/05/27 14:16:10;;;;;;;4.90;3.30;;;;;;;13.30;82.32;98540.48;2319487;77;20917;-83
2022/05/27 14:19:10;;;;;;;4.03;2.60;;;;;;;13.28;82.17;98557.97;2320136;77;20952;-83
2022/05/27 14:25:29;;;;;;;4.97;3.37;;;;;;;13.30;82.11;98536.98;2319547;77;21020;-83
2022/05/27 14:28:29;;;;;;;3.42;3.12;;;;;;;13.31;82.16;98556.64;2320528;77;21260;-82
2022/05/27 14:31:31;;;;;;;3.17;2.87;;;;;;;13.28;82.03;98538.30;2321188;77;20984;-84